Time;durP1;ratioP1;P1;durP2;ratioP2;P2;SDS_P1;SDS_P2;PMS_P1;PMS_P2;Temp;Humidity;BMP_temperature;BMP_pressure;BME280_temperature;BME280_humidity;BME280_pressure;Samples;Min_cycle;Max_cycle;Signal;HPM_P1;HPM_P2
2022/04/08 00:00:41;;;;;;;2.63;1.70;;;5.00;99.90;;;;;;6286581;28;20277;-84
2022/04/08 00:03:48;;;;;;;1.70;1.70;;;5.00;99.90;;;;;;6286364;28;20292;-85
2022/04/08 00:06:53;;;;;;;2.10;2.00;;;5.00;99.90;;;;;;6285184;28;20272;-84
2022/04/08 00:09:59;;;;;;;1.83;1.73;;;5.00;99.90;;;;;;6280853;28;20283;-85
2022/04/08 00:13:04;;;;;;;4.23;1.90;;;5.00;99.90;;;;;;6259801;28;20301;-84
2022/04/08 00:16:13;;;;;;;2.40;2.20;;;5.00;99.90;;;;;;6260780;28;20274;-84
2022/04/08 00:19:20;;;;;;;4.73;2.20;;;5.00;99.90;;;;;;6261192;28;20305;-85
2022/04/08 00:22:25;;;;;;;2.20;1.90;;;5.00;99.90;;;;;;6259608;28;20297;-85
2022/04/08 00:25:30;;;;;;;2.80;1.90;;;5.00;99.90;;;;;;6261274;28;20564;-85
2022/04/08 00:28:36;;;;;;;2.10;2.00;;;5.10;99.90;;;;;;6259730;28;20309;-84
2022/04/08 00:31:41;;;;;;;4.53;2.00;;;5.00;99.90;;;;;;6260086;28;20273;-83
2022/04/08 00:34:48;;;;;;;2.30;2.10;;;5.00;99.90;;;;;;6259261;28;20473;-85
2022/04/08 00:37:54;;;;;;;2.13;1.50;;;5.00;99.90;;;;;;6260631;28;20293;-84
2022/04/08 00:40:59;;;;;;;1.83;1.73;;;5.00;99.90;;;;;;6260267;28;20274;-84
2022/04/08 00:44:05;;;;;;;2.23;1.80;;;5.00;99.90;;;;;;6260774;28;20298;-84
2022/04/08 00:47:12;;;;;;;1.67;1.63;;;5.00;99.90;;;;;;6259240;28;20278;-84
2022/04/08 00:50:22;;;;;;;1.83;1.80;;;5.10;99.90;;;;;;6243212;28;20325;-84
2022/04/08 00:53:28;;;;;;;1.90;1.80;;;5.10;99.90;;;;;;6260887;28;20477;-84
2022/04/08 00:56:34;;;;;;;2.47;1.77;;;5.10;99.90;;;;;;6261230;28;20272;-85
2022/04/08 00:59:40;;;;;;;1.80;1.70;;;5.00;99.90;;;;;;6260903;28;20302;-84
2022/04/08 01:02:45;;;;;;;2.20;1.90;;;5.10;99.90;;;;;;6260845;28;20290;-85
2022/04/08 01:05:55;;;;;;;2.23;1.90;;;5.00;99.90;;;;;;6261292;28;20566;-84
2022/04/08 01:09:00;;;;;;;1.60;1.50;;;5.00;99.90;;;;;;6260543;28;20306;-84
2022/04/08 01:12:07;;;;;;;4.00;1.80;;;5.00;99.90;;;;;;6282098;28;20490;-85
2022/04/08 01:15:13;;;;;;;2.37;1.70;;;5.00;99.90;;;;;;6285252;28;20466;-84
2022/04/08 01:18:19;;;;;;;3.03;1.90;;;5.00;99.90;;;;;;6283260;28;20306;-84
2022/04/08 01:21:25;;;;;;;2.13;1.90;;;5.00;99.90;;;;;;6285885;28;20269;-84
2022/04/08 01:24:31;;;;;;;2.07;1.57;;;4.90;99.90;;;;;;6284676;28;20300;-84
2022/04/08 01:27:38;;;;;;;3.03;1.57;;;4.80;99.90;;;;;;6283831;28;20301;-85
2022/04/08 01:30:43;;;;;;;1.50;1.50;;;4.70;99.90;;;;;;6285652;28;20302;-84
2022/04/08 01:33:48;;;;;;;1.93;1.80;;;4.70;99.90;;;;;;6285044;28;20297;-84
2022/04/08 01:36:54;;;;;;;2.07;1.77;;;4.60;99.90;;;;;;6285132;28;20274;-84
2022/04/08 01:40:00;;;;;;;1.90;1.67;;;4.60;99.90;;;;;;6283185;28;20288;-84
2022/04/08 01:43:07;;;;;;;3.20;1.80;;;4.50;99.90;;;;;;6283470;28;20296;-84
2022/04/08 01:46:13;;;;;;;3.60;1.70;;;4.60;99.90;;;;;;6285326;28;20282;-84
2022/04/08 01:49:18;;;;;;;1.77;1.67;;;4.60;99.90;;;;;;6288735;28;20604;-84
2022/04/08 01:52:24;;;;;;;2.03;1.70;;;4.70;99.90;;;;;;6271501;28;20298;-84
2022/04/08 01:55:29;;;;;;;1.73;1.60;;;4.70;99.90;;;;;;6288415;28;20297;-84
2022/04/08 01:58:35;;;;;;;1.87;1.77;;;4.70;99.90;;;;;;6287854;28;20303;-84
2022/04/08 02:01:41;;;;;;;1.60;1.60;;;4.70;99.90;;;;;;6289424;28;20271;-84
2022/04/08 02:04:46;;;;;;;2.63;1.60;;;4.80;99.90;;;;;;6289123;28;20293;-84
2022/04/08 02:07:53;;;;;;;2.03;1.80;;;4.70;99.90;;;;;;6288787;28;20288;-85
2022/04/08 02:10:58;;;;;;;1.60;1.60;;;4.70;99.90;;;;;;6275465;28;20604;-84
2022/04/08 02:14:06;;;;;;;2.63;1.57;;;4.80;99.90;;;;;;6263868;28;20301;-84
2022/04/08 02:17:13;;;;;;;1.50;1.50;;;4.70;99.90;;;;;;6264004;28;20274;-84
2022/04/08 02:20:19;;;;;;;1.80;1.80;;;4.80;99.90;;;;;;6262851;28;20282;-84
2022/04/08 02:23:24;;;;;;;3.13;1.53;;;4.80;99.90;;;;;;6263792;28;20306;-84
2022/04/08 02:26:29;;;;;;;2.80;1.90;;;4.80;99.90;;;;;;6263975;28;20293;-84
2022/04/08 02:29:36;;;;;;;2.30;2.20;;;4.80;99.90;;;;;;6263827;28;20302;-84
2022/04/08 02:32:42;;;;;;;2.83;1.87;;;4.80;99.90;;;;;;6263603;28;20297;-84
2022/04/08 02:35:47;;;;;;;2.57;2.03;;;4.90;99.90;;;;;;6264309;28;20274;-84
2022/04/08 02:38:53;;;;;;;2.63;2.30;;;4.90;99.90;;;;;;6263628;28;20615;-84
2022/04/08 02:41:58;;;;;;;2.20;2.00;;;4.90;99.90;;;;;;6263263;28;20439;-83
2022/04/08 02:45:05;;;;;;;5.00;2.40;;;4.90;99.90;;;;;;6263881;28;20274;-83
2022/04/08 02:48:18;;;;;;;2.97;2.63;;;5.00;99.90;;;;;;6262983;28;20588;-84
2022/04/08 02:51:24;;;;;;;2.93;2.73;;;5.00;99.90;;;;;;6263378;28;20294;-84
2022/04/08 02:54:30;;;;;;;10.37;3.10;;;5.00;99.90;;;;;;6262852;28;20610;-84
2022/04/08 02:57:44;;;;;;;5.07;2.57;;;5.00;99.90;;;;;;6263077;28;20298;-83
2022/04/08 03:00:53;;;;;;;3.97;2.93;;;5.00;99.90;;;;;;6263487;28;20278;-83
2022/04/08 03:03:58;;;;;;;7.83;3.27;;;5.10;99.90;;;;;;6272186;28;20302;-84
2022/04/08 03:07:05;;;;;;;11.03;3.23;;;5.10;99.90;;;;;;6275796;28;20266;-84
2022/04/08 03:10:12;;;;;;;9.10;3.00;;;5.10;99.90;;;;;;6283515;28;20285;-84
2022/04/08 03:13:18;;;;;;;6.83;3.13;;;5.10;99.90;;;;;;6262365;28;20306;-83
2022/04/08 03:16:25;;;;;;;5.60;3.20;;;5.10;99.90;;;;;;6262717;28;20463;-84
2022/04/08 03:19:31;;;;;;;5.57;2.93;;;5.10;99.90;;;;;;6271580;28;20297;-84
2022/04/08 03:22:36;;;;;;;3.30;2.93;;;5.10;99.90;;;;;;6285262;28;20468;-84
2022/04/08 03:25:42;;;;;;;5.03;3.07;;;5.10;99.90;;;;;;6287106;28;20282;-84
2022/04/08 03:28:47;;;;;;;7.80;2.87;;;5.10;99.90;;;;;;6287055;28;20298;-83
2022/04/08 03:31:54;;;;;;;7.13;3.10;;;5.10;99.90;;;;;;6287127;28;20479;-83
2022/04/08 03:34:59;;;;;;;6.60;2.90;;;5.10;99.90;;;;;;6286488;28;20296;-84
2022/04/08 03:38:05;;;;;;;7.90;3.20;;;5.10;99.90;;;;;;6263429;28;20307;-84
2022/04/08 03:41:12;;;;;;;6.37;3.20;;;5.10;99.90;;;;;;6261330;28;20278;-84
2022/04/08 03:44:18;;;;;;;7.17;3.40;;;5.10;99.90;;;;;;6261684;28;20303;-83
2022/04/08 03:47:24;;;;;;;6.73;3.27;;;5.10;99.90;;;;;;6260846;28;20573;-83
2022/04/08 03:50:30;;;;;;;5.07;3.80;;;5.10;99.90;;;;;;6262388;28;20301;-84
2022/04/08 03:53:35;;;;;;;5.30;3.13;;;5.10;99.90;;;;;;6261858;28;20299;-84
2022/04/08 03:56:42;;;;;;;8.27;3.23;;;5.00;99.90;;;;;;6262219;28;20279;-84
2022/04/08 03:59:49;;;;;;;5.73;3.40;;;5.10;99.90;;;;;;6261471;28;20306;-83
2022/04/08 04:02:55;;;;;;;9.27;3.80;;;5.10;99.90;;;;;;6261249;28;20587;-84
2022/04/08 04:06:02;;;;;;;9.10;3.97;;;5.10;99.90;;;;;;6261649;28;20561;-83
2022/04/08 04:09:10;;;;;;;7.97;3.60;;;5.10;99.90;;;;;;6261038;28;20298;-83
2022/04/08 04:12:15;;;;;;;5.57;3.97;;;5.10;99.90;;;;;;6283582;28;20289;-84
2022/04/08 04:15:21;;;;;;;4.53;4.10;;;5.20;99.90;;;;;;6286059;28;20277;-84
2022/04/08 04:18:28;;;;;;;8.20;4.30;;;5.20;99.90;;;;;;6285948;28;20296;-83
2022/04/08 04:21:34;;;;;;;11.27;4.23;;;5.10;99.90;;;;;;6268173;28;20276;-83
2022/04/08 04:24:40;;;;;;;8.77;4.37;;;5.10;99.90;;;;;;6285242;28;20306;-83
2022/04/08 04:27:45;;;;;;;5.70;4.20;;;5.10;99.90;;;;;;6286008;28;20294;-84
2022/04/08 04:30:53;;;;;;;5.33;4.60;;;5.10;99.90;;;;;;6285668;28;20298;-83
2022/04/08 04:34:00;;;;;;;8.97;4.80;;;5.20;99.90;;;;;;6285564;28;20302;-84
2022/04/08 04:37:08;;;;;;;8.33;4.40;;;5.10;99.90;;;;;;6285293;28;20278;-83
2022/04/08 04:40:14;;;;;;;9.37;4.77;;;5.10;99.90;;;;;;6285649;28;20457;-83
2022/04/08 04:43:20;;;;;;;8.93;5.17;;;5.10;99.90;;;;;;6284896;28;20369;-83
2022/04/08 04:46:25;;;;;;;9.57;4.20;;;5.10;99.90;;;;;;6285819;28;20455;-84
2022/04/08 04:49:32;;;;;;;6.30;5.00;;;5.10;99.90;;;;;;6285573;28;20292;-83
2022/04/08 04:52:38;;;;;;;15.53;4.53;;;5.10;99.90;;;;;;6285348;28;20298;-83
2022/04/08 04:55:43;;;;;;;7.77;4.13;;;5.10;99.90;;;;;;6285997;28;20273;-84
2022/04/08 04:58:48;;;;;;;6.10;4.03;;;5.10;99.90;;;;;;6285287;28;20301;-83
2022/04/08 05:01:54;;;;;;;4.83;4.13;;;5.10;99.90;;;;;;6284421;28;20297;-83
2022/04/08 05:05:02;;;;;;;5.87;3.70;;;5.10;99.90;;;;;;6283894;28;20593;-83
2022/04/08 05:08:09;;;;;;;5.23;3.60;;;5.10;99.90;;;;;;6285375;28;20301;-84
2022/04/08 05:11:15;;;;;;;6.63;3.97;;;5.10;99.90;;;;;;6270159;28;20279;-81
2022/04/08 05:14:22;;;;;;;4.40;3.73;;;5.10;99.90;;;;;;6260699;28;20481;-82
2022/04/08 05:17:28;;;;;;;9.60;4.57;;;5.20;99.90;;;;;;6259972;28;20295;-82
2022/04/08 05:20:35;;;;;;;8.13;4.30;;;5.10;99.90;;;;;;6260723;28;20273;-84
2022/04/08 05:23:40;;;;;;;9.37;4.60;;;5.10;99.90;;;;;;6263082;28;20306;-83
2022/04/08 05:26:45;;;;;;;4.37;3.97;;;5.20;99.90;;;;;;6265643;28;20274;-84
2022/04/08 05:29:51;;;;;;;7.33;4.13;;;5.20;99.90;;;;;;6265047;28;20302;-83
2022/04/08 05:32:56;;;;;;;5.60;4.00;;;5.20;99.90;;;;;;6264664;28;20289;-83
2022/04/08 05:36:03;;;;;;;4.43;4.03;;;5.20;99.90;;;;;;6263978;28;20274;-81
2022/04/08 05:39:09;;;;;;;4.80;4.30;;;5.20;99.90;;;;;;6264733;28;20302;-82
2022/04/08 05:42:14;;;;;;;7.50;4.03;;;5.20;99.90;;;;;;6264280;28;20283;-82
2022/04/08 05:45:22;;;;;;;5.03;4.47;;;5.20;99.90;;;;;;6265256;28;20404;-83
2022/04/08 05:48:27;;;;;;;9.43;4.60;;;5.20;99.90;;;;;;6264698;28;20299;-82
2022/04/08 05:51:38;;;;;;;5.23;4.27;;;5.20;99.90;;;;;;6264990;28;20278;-83
2022/04/08 05:54:46;;;;;;;4.60;4.20;;;5.20;99.90;;;;;;6246723;28;20302;-83
2022/04/08 05:57:53;;;;;;;5.00;4.23;;;5.20;99.90;;;;;;6263158;28;20326;-82
2022/04/08 06:00:58;;;;;;;6.27;3.60;;;5.20;99.90;;;;;;6263447;28;20553;-82
2022/04/08 06:04:04;;;;;;;2.13;2.00;;;5.20;99.90;;;;;;6264073;28;20305;-82
2022/04/08 06:07:10;;;;;;;1.63;1.63;;;5.00;99.90;;;;;;6263650;28;20274;-81
2022/04/08 06:10:18;;;;;;;2.43;1.80;;;4.90;99.90;;;;;;6269830;28;20265;-82
2022/04/08 06:13:26;;;;;;;2.73;2.20;;;4.80;99.90;;;;;;6288565;28;20302;-82
2022/04/08 06:16:31;;;;;;;1.50;1.50;;;4.80;99.90;;;;;;6288630;28;20274;-82
2022/04/08 06:19:37;;;;;;;1.60;1.60;;;4.70;99.90;;;;;;6288630;28;20310;-82
2022/04/08 06:22:44;;;;;;;1.70;1.70;;;4.70;99.90;;;;;;6288107;28;20302;-82
2022/04/08 06:25:50;;;;;;;1.33;1.33;;;4.60;99.90;;;;;;6289010;28;20271;-81
2022/04/08 06:28:55;;;;;;;1.40;1.40;;;4.50;99.90;;;;;;6288221;28;20598;-82
2022/04/08 06:32:00;;;;;;;1.30;1.30;;;4.30;99.90;;;;;;6288142;28;20277;-81
2022/04/08 06:35:07;;;;;;;1.13;1.03;;;4.20;99.90;;;;;;6285699;28;20436;-81
2022/04/08 06:38:16;;;;;;;1.30;1.20;;;4.10;99.90;;;;;;6286570;28;20313;-80
2022/04/08 06:41:22;;;;;;;1.57;1.10;;;3.90;99.90;;;;;;6287506;28;20269;-84
2022/04/08 06:44:28;;;;;;;0.97;0.97;;;3.80;99.90;;;;;;6286287;28;20307;-81
2022/04/08 06:47:33;;;;;;;1.30;0.80;;;3.60;99.90;;;;;;6287741;28;20296;-82
2022/04/08 06:50:39;;;;;;;1.03;1.00;;;3.50;99.90;;;;;;6286976;28;20273;-83
2022/04/08 06:53:46;;;;;;;0.80;0.80;;;3.40;99.90;;;;;;6286336;28;20306;-82
2022/04/08 06:56:51;;;;;;;0.70;0.70;;;3.40;99.90;;;;;;6288976;28;20308;-91
2022/04/08 07:00:03;;;;;;;0.90;0.90;;;3.40;99.90;;;;;;6287273;28;20306;-83
2022/04/08 07:03:14;;;;;;;1.07;1.07;;;3.40;99.90;;;;;;6287282;28;20297;-84
2022/04/08 07:06:20;;;;;;;1.47;1.10;;;3.50;99.90;;;;;;6287413;28;20268;-80
2022/04/08 07:09:26;;;;;;;0.93;0.93;;;3.50;99.90;;;;;;6287188;28;20303;-87
2022/04/08 07:12:32;;;;;;;1.00;1.00;;;3.60;99.90;;;;;;6260727;28;20472;-83
2022/04/08 07:15:37;;;;;;;0.87;0.87;;;3.60;99.90;;;;;;6262539;28;20479;-82
2022/04/08 07:18:43;;;;;;;0.90;0.90;;;3.60;99.90;;;;;;6262378;28;20632;-80
2022/04/08 07:21:48;;;;;;;0.80;0.80;;;3.70;99.90;;;;;;6262890;28;20451;-79
2022/04/08 07:24:56;;;;;;;1.00;0.90;;;3.70;99.90;;;;;;6262084;28;20311;-79
2022/04/08 07:28:01;;;;;;;1.30;0.90;;;3.70;99.90;;;;;;6262257;28;20321;-81
2022/04/08 07:31:08;;;;;;;1.07;1.07;;;3.70;99.90;;;;;;6262557;28;20272;-81
2022/04/08 07:34:13;;;;;;;0.90;0.90;;;3.70;99.90;;;;;;6260805;28;20301;-81
2022/04/08 07:37:29;;;;;;;0.83;0.83;;;3.70;99.90;;;;;;6261711;28;20542;-81
2022/04/08 07:40:36;;;;;;;0.90;0.90;;;3.60;99.90;;;;;;6262277;28;20447;-81
2022/04/08 07:43:41;;;;;;;1.07;1.07;;;3.70;99.90;;;;;;6261789;28;20304;-80
2022/04/08 07:46:46;;;;;;;1.27;0.90;;;3.80;99.90;;;;;;6259805;28;20553;-81
2022/04/08 07:49:51;;;;;;;0.83;0.83;;;3.80;99.90;;;;;;6259962;28;20310;-80
2022/04/08 07:52:57;;;;;;;0.90;0.90;;;3.70;99.90;;;;;;6260139;28;20286;-80
2022/04/08 07:56:05;;;;;;;0.70;0.70;;;3.80;99.90;;;;;;6260839;28;20295;-80
2022/04/08 07:59:10;;;;;;;0.83;0.80;;;3.70;99.90;;;;;;6261563;28;20296;-80
2022/04/08 08:02:15;;;;;;;0.80;0.80;;;3.80;99.90;;;;;;6260859;28;20463;-80
2022/04/08 08:05:27;;;;;;;0.80;0.80;;;3.70;99.90;;;;;;6261784;28;20276;-82
2022/04/08 08:08:33;;;;;;;0.70;0.70;;;3.80;99.90;;;;;;6261336;28;20366;-81
2022/04/08 08:11:40;;;;;;;0.90;0.90;;;4.00;99.90;;;;;;6279792;28;20269;-82
2022/04/08 08:14:45;;;;;;;0.80;0.77;;;4.00;99.90;;;;;;6285776;28;20300;-82
2022/04/08 08:17:51;;;;;;;1.23;0.80;;;4.00;99.90;;;;;;6284657;28;20299;-82
2022/04/08 08:20:57;;;;;;;0.80;0.80;;;3.90;99.90;;;;;;6286374;28;20274;-81
2022/04/08 08:24:02;;;;;;;0.70;0.70;;;3.90;99.90;;;;;;6285397;28;20461;-82
2022/04/08 08:27:11;;;;;;;0.90;0.90;;;4.20;99.90;;;;;;6285359;28;20559;-82
2022/04/08 08:30:18;;;;;;;0.83;0.83;;;4.10;99.90;;;;;;6286233;28;20551;-82
2022/04/08 08:33:23;;;;;;;0.80;0.80;;;4.10;99.90;;;;;;6285492;28;20296;-81
2022/04/08 08:36:29;;;;;;;1.00;1.00;;;3.90;99.90;;;;;;6285606;28;20291;-82
2022/04/08 08:39:35;;;;;;;0.90;0.90;;;3.90;99.90;;;;;;6285513;28;20296;-82
2022/04/08 08:42:42;;;;;;;0.97;0.97;;;4.10;99.90;;;;;;6285511;28;20418;-79
2022/04/08 08:45:50;;;;;;;1.10;1.10;;;4.10;99.90;;;;;;6286236;28;20276;-81
2022/04/08 08:49:00;;;;;;;1.60;0.90;;;4.10;99.90;;;;;;6285248;28;20300;-81
2022/04/08 08:52:07;;;;;;;1.03;0.80;;;4.10;99.90;;;;;;6285031;28;20464;-82
2022/04/08 08:55:12;;;;;;;0.80;0.80;;;4.00;99.90;;;;;;6285579;28;20290;-80
2022/04/08 08:58:19;;;;;;;2.90;0.90;;;3.90;99.90;;;;;;6288227;28;20308;-80
2022/04/08 09:01:25;;;;;;;0.90;0.90;;;3.70;99.90;;;;;;6290909;28;20278;-80
2022/04/08 09:04:30;;;;;;;1.40;1.03;;;3.50;99.90;;;;;;6290569;28;20306;-80
2022/04/08 09:07:36;;;;;;;0.97;0.93;;;3.60;99.90;;;;;;6290301;28;20296;-80
2022/04/08 09:10:45;;;;;;;1.00;1.00;;;3.70;99.90;;;;;;6289247;28;20263;-80
2022/04/08 09:13:54;;;;;;;1.00;1.00;;;3.50;99.90;;;;;;6288270;28;20297;-80
2022/04/08 09:17:03;;;;;;;1.57;1.07;;;3.70;99.90;;;;;;6290467;28;20300;-80
2022/04/08 09:20:12;;;;;;;1.03;1.03;;;3.90;99.90;;;;;;6289021;28;20280;-78
2022/04/08 09:23:21;;;;;;;0.90;0.90;;;3.90;99.90;;;;;;6289513;28;20299;-77
2022/04/08 09:26:36;;;;;;;1.00;1.00;;;3.80;99.90;;;;;;6290430;28;20274;-80
2022/04/08 09:29:45;;;;;;;1.00;1.00;;;3.60;99.90;;;;;;6289674;28;20298;-77
2022/04/08 09:33:21;;;;;;;1.20;1.20;;;3.50;99.90;;;;;;6288514;28;20300;-79
2022/04/08 09:36:28;;;;;;;1.00;1.00;;;3.60;99.90;;;;;;6305129;28;20298;-78
2022/04/08 09:39:33;;;;;;;1.10;1.10;;;3.40;99.90;;;;;;6289261;28;20302;-80
2022/04/08 09:42:43;;;;;;;1.10;1.10;;;3.40;99.90;;;;;;6288000;28;20286;-80
2022/04/08 09:45:49;;;;;;;1.10;1.10;;;3.50;99.90;;;;;;6289682;28;20288;-80
2022/04/08 09:48:55;;;;;;;1.20;1.20;;;3.60;99.90;;;;;;6289135;28;20296;-85
2022/04/08 09:52:00;;;;;;;1.13;1.13;;;3.70;99.90;;;;;;6289136;28;20284;-78
2022/04/08 09:55:08;;;;;;;1.10;1.10;;;3.70;99.90;;;;;;6287360;28;20291;-76
2022/04/08 09:58:14;;;;;;;1.10;1.10;;;3.60;99.90;;;;;;6288866;28;20293;-79
2022/04/08 10:01:23;;;;;;;1.20;1.20;;;3.60;99.90;;;;;;6288891;28;20561;-80
2022/04/08 10:04:29;;;;;;;1.00;1.00;;;3.60;99.90;;;;;;6288764;28;20312;-81
2022/04/08 10:07:36;;;;;;;1.37;1.00;;;3.70;99.90;;;;;;6286408;28;20295;-81
2022/04/08 10:10:54;;;;;;;1.10;1.10;;;3.70;99.90;;;;;;6289291;28;20553;-82
2022/04/08 10:14:16;;;;;;;1.00;1.00;;;3.80;99.90;;;;;;6288523;28;20307;-78
2022/04/08 10:17:22;;;;;;;0.90;0.90;;;4.00;99.90;;;;;;6287790;28;20291;-79
2022/04/08 10:20:29;;;;;;;0.90;0.90;;;4.10;99.90;;;;;;6289177;28;20276;-79
2022/04/08 10:23:38;;;;;;;1.17;0.97;;;4.10;99.90;;;;;;6288176;28;20309;-80
2022/04/08 10:27:03;;;;;;;0.80;0.80;;;4.10;99.90;;;;;;6288319;28;20274;-80
2022/04/08 10:30:14;;;;;;;1.00;1.00;;;4.10;99.90;;;;;;6286643;28;20272;-79
2022/04/08 10:33:30;;;;;;;1.50;0.80;;;4.10;99.90;;;;;;6288092;28;20301;-80
2022/04/08 10:36:38;;;;;;;0.80;0.80;;;4.10;99.90;;;;;;6288405;28;20292;-80
2022/04/08 10:39:43;;;;;;;0.90;0.90;;;3.80;99.90;;;;;;6288006;28;20553;-80
2022/04/08 10:42:58;;;;;;;1.00;1.00;;;3.80;99.90;;;;;;6286011;28;20291;-80
2022/04/08 10:46:05;;;;;;;0.90;0.90;;;3.80;99.90;;;;;;6286787;28;20274;-80
2022/04/08 10:49:12;;;;;;;0.90;0.90;;;3.70;99.90;;;;;;6286400;28;20481;-80
2022/04/08 10:52:21;;;;;;;0.90;0.90;;;3.60;99.90;;;;;;6269036;28;20280;-79
2022/04/08 10:55:27;;;;;;;1.10;1.10;;;3.70;99.90;;;;;;6287725;28;20272;-77
2022/04/08 10:58:41;;;;;;;0.90;0.90;;;3.70;99.90;;;;;;6287702;28;20298;-79
2022/04/08 11:01:48;;;;;;;0.80;0.80;;;3.70;99.90;;;;;;6287369;28;20293;-78
2022/04/08 11:05:03;;;;;;;0.90;0.90;;;3.60;99.90;;;;;;6287111;28;20478;-78
2022/04/08 11:08:09;;;;;;;1.00;1.00;;;3.50;99.90;;;;;;6287231;28;20321;-78
2022/04/08 11:11:15;;;;;;;1.00;1.00;;;3.40;99.90;;;;;;6277669;28;20268;-78
2022/04/08 11:14:21;;;;;;;0.80;0.80;;;3.50;99.90;;;;;;6262304;28;20590;-80
2022/04/08 11:17:34;;;;;;;0.90;0.90;;;3.30;99.90;;;;;;6262049;28;20295;-78
2022/04/08 11:20:41;;;;;;;0.80;0.80;;;3.20;99.90;;;;;;6262694;28;20547;-78
2022/04/08 11:23:58;;;;;;;0.90;0.90;;;3.30;99.90;;;;;;6262047;28;20311;-78
2022/04/08 11:27:04;;;;;;;0.90;0.90;;;3.40;99.90;;;;;;6262049;28;20280;-78
2022/04/08 11:30:13;;;;;;;0.90;0.90;;;3.00;99.90;;;;;;6260560;28;20280;-78
2022/04/08 11:33:19;;;;;;;0.90;0.90;;;3.10;99.90;;;;;;6260832;28;20296;-78
2022/04/08 11:36:26;;;;;;;0.90;0.90;;;3.00;99.90;;;;;;6261866;28;20298;-78
2022/04/08 11:39:32;;;;;;;1.00;1.00;;;2.90;99.90;;;;;;6261839;28;20302;-78
2022/04/08 11:42:37;;;;;;;1.00;1.00;;;2.90;99.90;;;;;;6260265;28;20289;-78
2022/04/08 11:45:42;;;;;;;0.90;0.90;;;3.00;99.90;;;;;;6260619;28;20275;-78
2022/04/08 11:48:49;;;;;;;1.00;1.00;;;3.00;99.90;;;;;;6260378;28;20623;-78
2022/04/08 11:52:03;;;;;;;0.90;0.90;;;2.70;99.90;;;;;;6260514;28;20276;-78
2022/04/08 11:55:10;;;;;;;1.33;0.80;;;2.70;99.90;;;;;;6261063;28;20284;-78
2022/04/08 11:58:21;;;;;;;0.90;0.90;;;2.80;99.90;;;;;;6261430;28;20306;-78
2022/04/08 12:01:32;;;;;;;0.87;0.87;;;2.80;99.90;;;;;;6261729;28;20278;-80
2022/04/08 12:04:41;;;;;;;0.80;0.80;;;2.70;99.90;;;;;;6261285;28;20474;-80
2022/04/08 12:07:48;;;;;;;0.97;0.97;;;2.70;99.90;;;;;;6261265;28;20307;-80
2022/04/08 12:10:55;;;;;;;1.07;1.00;;;2.70;99.90;;;;;;6263844;28;20267;-80
2022/04/08 12:14:01;;;;;;;1.33;0.90;;;2.70;99.90;;;;;;6260016;28;20306;-80
2022/04/08 12:17:06;;;;;;;1.10;1.10;;;2.60;99.90;;;;;;6260979;28;20297;-78
2022/04/08 12:20:14;;;;;;;0.90;0.90;;;2.50;99.90;;;;;;6260506;28;20279;-81
2022/04/08 12:23:22;;;;;;;0.80;0.80;;;2.50;99.90;;;;;;6260554;28;20312;-81
2022/04/08 12:26:30;;;;;;;1.10;1.10;;;2.50;99.90;;;;;;6261436;28;20275;-80
2022/04/08 12:29:37;;;;;;;0.97;0.97;;;2.50;99.90;;;;;;6260932;28;20477;-81
2022/04/08 12:32:43;;;;;;;3.93;0.90;;;2.60;99.90;;;;;;6259002;28;20295;-80
2022/04/08 12:35:49;;;;;;;1.13;1.00;;;2.60;99.90;;;;;;6261220;28;20278;-80
2022/04/08 12:38:56;;;;;;;1.10;1.10;;;2.60;99.90;;;;;;6260304;28;20390;-79
2022/04/08 12:42:01;;;;;;;1.70;1.00;;;2.70;99.90;;;;;;6260819;28;20278;-79
2022/04/08 12:45:08;;;;;;;1.00;1.00;;;2.60;99.90;;;;;;6259871;28;20278;-80
2022/04/08 12:48:14;;;;;;;1.00;1.00;;;2.60;99.90;;;;;;6260282;28;20598;-79
2022/04/08 12:51:20;;;;;;;0.93;0.93;;;2.60;99.90;;;;;;6260696;28;20469;-79
2022/04/08 12:54:27;;;;;;;0.93;0.93;;;2.60;99.90;;;;;;6260499;28;20368;-79
2022/04/08 12:57:32;;;;;;;1.00;1.00;;;2.60;99.90;;;;;;6257942;28;20315;-79
2022/04/08 13:00:58;;;;;;;0.90;0.90;;;2.70;99.90;;;;;;6260438;28;20272;-79
2022/04/08 13:04:04;;;;;;;1.70;1.00;;;2.60;99.90;;;;;;6260616;28;20311;-79
2022/04/08 13:07:09;;;;;;;1.00;1.00;;;2.70;99.90;;;;;;6260311;28;20271;-79
2022/04/08 13:10:16;;;;;;;0.90;0.90;;;2.60;99.90;;;;;;6260784;28;20271;-79
2022/04/08 13:13:21;;;;;;;1.00;1.00;;;2.60;99.90;;;;;;6260393;28;20302;-79
2022/04/08 13:16:27;;;;;;;0.93;0.93;;;2.60;99.90;;;;;;6260488;28;20463;-79
2022/04/08 13:19:32;;;;;;;1.03;1.03;;;2.70;99.90;;;;;;6260253;28;20571;-79
2022/04/08 13:22:37;;;;;;;0.90;0.90;;;2.60;99.90;;;;;;6258361;28;20302;-79
2022/04/08 13:25:44;;;;;;;0.90;0.90;;;2.70;99.90;;;;;;6259133;28;20560;-79
2022/04/08 13:28:49;;;;;;;0.90;0.90;;;2.70;99.90;;;;;;6260209;28;20291;-79
2022/04/08 13:31:55;;;;;;;0.90;0.90;;;2.60;99.90;;;;;;6260563;28;20275;-79
2022/04/08 13:35:00;;;;;;;1.10;1.10;;;2.70;99.90;;;;;;6259801;28;20301;-79
2022/04/08 13:38:05;;;;;;;2.93;0.90;;;2.90;99.90;;;;;;6260069;28;20421;-79
2022/04/08 13:41:14;;;;;;;0.87;0.87;;;2.80;99.90;;;;;;6260440;28;20445;-79
2022/04/08 13:44:21;;;;;;;1.00;1.00;;;2.70;99.90;;;;;;6262381;28;20298;-79
2022/04/08 13:47:26;;;;;;;1.00;1.00;;;2.70;99.90;;;;;;6264664;28;20463;-79
2022/04/08 13:50:32;;;;;;;1.00;1.00;;;2.70;99.90;;;;;;6264485;28;20563;-79
2022/04/08 13:53:37;;;;;;;0.90;0.90;;;2.70;99.90;;;;;;6263198;28;20302;-79
2022/04/08 13:56:46;;;;;;;2.50;0.93;;;2.80;99.90;;;;;;6263708;28;20295;-79
2022/04/08 13:59:51;;;;;;;0.93;0.93;;;2.90;99.90;;;;;;6264120;28;20310;-79
2022/04/08 14:02:56;;;;;;;0.73;0.73;;;2.80;99.90;;;;;;6262671;28;20287;-79
2022/04/08 14:06:02;;;;;;;0.80;0.80;;;2.90;99.90;;;;;;6264382;28;20271;-79
2022/04/08 14:09:08;;;;;;;2.37;0.80;;;2.80;99.90;;;;;;6263823;28;20300;-79
2022/04/08 14:12:15;;;;;;;0.90;0.90;;;2.70;99.90;;;;;;6286817;28;20510;-78
2022/04/08 14:15:21;;;;;;;5.97;1.00;;;2.70;99.90;;;;;;6289002;28;20294;-79
2022/04/08 14:18:31;;;;;;;0.97;0.90;;;2.80;99.90;;;;;;6286967;28;20403;-79
2022/04/08 14:21:36;;;;;;;3.60;1.10;;;2.80;99.90;;;;;;6287320;28;20571;-79
2022/04/08 14:24:43;;;;;;;1.63;1.00;;;2.80;99.90;;;;;;6287751;28;20677;-79
2022/04/08 14:27:50;;;;;;;0.90;0.90;;;2.80;99.90;;;;;;6288144;28;20310;-79
2022/04/08 14:30:55;;;;;;;1.20;1.20;;;2.70;99.90;;;;;;6288510;28;20279;-79
2022/04/08 14:34:00;;;;;;;0.90;0.90;;;2.70;99.90;;;;;;6288151;28;20602;-79
2022/04/08 14:37:06;;;;;;;2.00;1.27;;;2.70;99.90;;;;;;6287694;28;20280;-80
2022/04/08 14:40:16;;;;;;;2.33;1.30;;;2.80;99.90;;;;;;6286276;28;20294;-81
2022/04/08 14:43:23;;;;;;;4.07;3.77;;;2.80;99.90;;;;;;6287677;28;20507;-80
2022/04/08 14:46:28;;;;;;;1.13;1.10;;;2.90;99.90;;;;;;6287903;28;20307;-80
2022/04/08 14:49:33;;;;;;;1.37;1.37;;;2.90;99.90;;;;;;6288155;28;20298;-80
2022/04/08 14:52:39;;;;;;;1.53;1.53;;;2.90;99.90;;;;;;6287410;28;20300;-79
2022/04/08 14:55:45;;;;;;;1.10;1.10;;;2.90;99.90;;;;;;6287813;28;20278;-79
2022/04/08 14:58:52;;;;;;;0.90;0.90;;;2.80;99.90;;;;;;6286058;28;20578;-79
2022/04/08 15:01:59;;;;;;;0.80;0.80;;;2.60;99.90;;;;;;6286691;28;20306;-81
2022/04/08 15:05:06;;;;;;;0.90;0.90;;;2.60;99.90;;;;;;6286995;28;20429;-80
2022/04/08 15:08:17;;;;;;;2.40;1.43;;;2.60;99.90;;;;;;6285706;28;20303;-78
2022/04/08 15:11:22;;;;;;;0.90;0.90;;;2.70;99.90;;;;;;6285801;28;20271;-78
2022/04/08 15:14:29;;;;;;;1.03;1.03;;;2.70;99.90;;;;;;6286605;28;20294;-79
2022/04/08 15:17:36;;;;;;;1.00;1.00;;;2.50;99.90;;;;;;6286077;28;20305;-78
2022/04/08 15:20:41;;;;;;;0.83;0.83;;;2.60;99.90;;;;;;6287344;28;20293;-78
2022/04/08 15:23:47;;;;;;;0.90;0.90;;;2.70;99.90;;;;;;6286227;28;20327;-78
2022/04/08 15:26:53;;;;;;;0.90;0.90;;;2.60;99.90;;;;;;6286911;28;20292;-78
2022/04/08 15:29:59;;;;;;;1.20;0.90;;;2.70;99.90;;;;;;6286954;28;20299;-78
2022/04/08 15:33:06;;;;;;;1.73;1.17;;;2.70;99.90;;;;;;6286123;28;20318;-79
2022/04/08 15:36:11;;;;;;;1.70;0.90;;;2.70;99.90;;;;;;6285733;28;20278;-78
2022/04/08 15:39:18;;;;;;;2.13;0.90;;;2.70;99.90;;;;;;6286398;28;20315;-78
2022/04/08 15:42:23;;;;;;;1.10;1.10;;;2.60;99.90;;;;;;6285958;28;20271;-78
2022/04/08 15:45:29;;;;;;;1.00;1.00;;;2.60;99.90;;;;;;6286834;28;20319;-78
2022/04/08 15:48:36;;;;;;;0.93;0.93;;;2.60;99.90;;;;;;6284909;28;20310;-79
2022/04/08 15:51:42;;;;;;;0.83;0.83;;;2.60;99.90;;;;;;6286542;28;20446;-78
2022/04/08 15:54:47;;;;;;;1.43;1.13;;;2.70;99.90;;;;;;6286203;28;20302;-79
2022/04/08 15:57:53;;;;;;;1.10;1.10;;;2.70;99.90;;;;;;6285841;28;20287;-79
2022/04/08 16:01:00;;;;;;;1.10;1.10;;;2.70;99.90;;;;;;6286023;28;20306;-78
2022/04/08 16:04:06;;;;;;;0.90;0.90;;;2.70;99.90;;;;;;6286131;28;20306;-79
2022/04/08 16:07:11;;;;;;;1.57;1.07;;;2.70;99.90;;;;;;6285465;28;20279;-79
2022/04/08 16:10:17;;;;;;;1.30;1.00;;;2.70;99.90;;;;;;6286356;28;20267;-79
2022/04/08 16:13:24;;;;;;;0.90;0.90;;;2.70;99.90;;;;;;6286148;28;20481;-78
2022/04/08 16:16:31;;;;;;;1.10;1.10;;;2.70;99.90;;;;;;6285185;28;20283;-78
2022/04/08 16:19:36;;;;;;;1.00;1.00;;;2.60;99.90;;;;;;6285907;28;20294;-79
2022/04/08 16:22:41;;;;;;;1.43;1.33;;;2.60;99.90;;;;;;6284161;28;20244;-79
2022/04/08 16:25:47;;;;;;;1.10;1.10;;;2.50;99.90;;;;;;6286209;28;20270;-78